Time;durP1;ratioP1;P1;durP2;ratioP2;P2;SDS_P1;SDS_P2;PMS_P1;PMS_P2;Temp;Humidity;BMP_temperature;BMP_pressure;BME280_temperature;BME280_humidity;BME280_pressure;Samples;Min_cycle;Max_cycle;Signal;HPM_P1;HPM_P2
2021/04/13 00:02:12;;;;;;;9.45;8.45;;;;;;;;;;5074857;28;20281;-67
2021/04/13 00:04:38;;;;;;;11.20;8.60;;;;;;;;;;5076066;28;20609;-67
2021/04/13 00:07:05;;;;;;;9.70;7.90;;;;;;;;;;5075429;28;20675;-66
2021/04/13 00:09:33;;;;;;;9.27;8.07;;;;;;;;;;5075180;28;20231;-66
2021/04/13 00:12:00;;;;;;;10.25;8.48;;;;;;;;;;5075064;28;20289;-66
2021/04/13 00:14:28;;;;;;;10.18;8.40;;;;;;;;;;5075439;28;20247;-67
2021/04/13 00:16:58;;;;;;;10.57;8.55;;;;;;;;;;5074893;28;20289;-66
2021/04/13 00:19:31;;;;;;;9.23;7.55;;;;;;;;;;5074910;28;20226;-67
2021/04/13 00:21:58;;;;;;;14.13;9.27;;;;;;;;;;5075486;28;20256;-66
2021/04/13 00:24:25;;;;;;;11.50;8.75;;;;;;;;;;5074854;28;20324;-67
2021/04/13 00:26:53;;;;;;;13.13;9.63;;;;;;;;;;5074522;28;20220;-67
2021/04/13 00:29:22;;;;;;;8.82;7.93;;;;;;;;;;5075090;28;20202;-67
2021/04/13 00:31:49;;;;;;;11.20;8.88;;;;;;;;;;5075121;28;20231;-67
2021/04/13 00:34:23;;;;;;;12.38;9.48;;;;;;;;;;5073645;28;20198;-67
2021/04/13 00:36:51;;;;;;;13.98;9.35;;;;;;;;;;5074740;28;20186;-66
2021/04/13 00:39:19;;;;;;;17.25;10.70;;;;;;;;;;5074179;28;20228;-65
2021/04/13 00:41:49;;;;;;;10.95;9.45;;;;;;;;;;5075216;28;20268;-65
2021/04/13 00:44:16;;;;;;;13.98;9.35;;;;;;;;;;5074437;28;20273;-65
2021/04/13 00:46:44;;;;;;;10.35;8.95;;;;;;;;;;5074711;28;20226;-65
2021/04/13 00:49:11;;;;;;;14.38;9.27;;;;;;;;;;5075001;28;20328;-65
2021/04/13 00:51:42;;;;;;;12.43;9.23;;;;;;;;;;5074314;28;20194;-66
2021/04/13 00:54:10;;;;;;;10.05;9.05;;;;;;;;;;5074049;28;20218;-66
2021/04/13 00:56:38;;;;;;;11.18;8.40;;;;;;;;;;5074279;28;20198;-67
2021/04/13 00:59:07;;;;;;;12.20;9.45;;;;;;;;;;5074131;28;20292;-67
2021/04/13 01:01:36;;;;;;;12.43;9.25;;;;;;;;;;5074479;28;20205;-67
2021/04/13 01:04:13;;;;;;;10.30;8.70;;;;;;;;;;5074642;28;20194;-67
2021/04/13 01:06:40;;;;;;;10.00;8.50;;;;;;;;;;5074651;28;20186;-66
2021/04/13 01:09:10;;;;;;;14.70;9.43;;;;;;;;;;5073958;28;20198;-67
2021/04/13 01:11:41;;;;;;;13.20;8.90;;;;;;;;;;5073671;28;20605;-66
2021/04/13 01:14:08;;;;;;;10.25;8.38;;;;;;;;;;5073734;28;20273;-67
2021/04/13 01:16:39;;;;;;;10.27;8.65;;;;;;;;;;5074164;28;20282;-67
2021/04/13 01:19:11;;;;;;;11.98;9.63;;;;;;;;;;5074052;28;20351;-66
2021/04/13 01:21:43;;;;;;;10.43;8.40;;;;;;;;;;5073569;28;20182;-66
2021/04/13 01:24:12;;;;;;;12.35;9.80;;;;;;;;;;5073880;28;20277;-66
2021/04/13 01:26:43;;;;;;;15.57;9.10;;;;;;;;;;5073501;28;20248;-66
2021/04/13 01:29:10;;;;;;;10.63;8.80;;;;;;;;;;5073469;28;20187;-66
2021/04/13 01:31:44;;;;;;;12.20;10.13;;;;;;;;;;5073747;28;20236;-66
2021/04/13 01:34:14;;;;;;;11.75;8.13;;;;;;;;;;5074013;28;20186;-66
2021/04/13 01:36:45;;;;;;;12.90;9.30;;;;;;;;;;5073448;28;20186;-66
2021/04/13 01:39:15;;;;;;;9.20;8.30;;;;;;;;;;5074126;28;20202;-66
2021/04/13 01:41:56;;;;;;;20.42;8.35;;;;;;;;;;5073420;28;20196;-66
2021/04/13 01:44:24;;;;;;;11.60;8.77;;;;;;;;;;5073656;28;20190;-66
2021/04/13 01:46:51;;;;;;;15.02;8.60;;;;;;;;;;5072665;28;20699;-65
2021/04/13 01:49:18;;;;;;;16.17;9.80;;;;;;;;;;5074602;28;20205;-65
2021/04/13 01:51:45;;;;;;;9.27;8.25;;;;;;;;;;5073735;28;20282;-65
2021/04/13 01:54:14;;;;;;;11.05;8.95;;;;;;;;;;5073523;28;20280;-65
2021/04/13 01:56:52;;;;;;;16.38;8.73;;;;;;;;;;5073915;28;20233;-65
2021/04/13 01:59:22;;;;;;;9.93;8.80;;;;;;;;;;5073164;28;20213;-65
2021/04/13 02:01:51;;;;;;;11.90;9.30;;;;;;;;;;5073589;28;20229;-65
2021/04/13 02:04:20;;;;;;;10.93;8.23;;;;;;;;;;5073101;28;20190;-66
2021/04/13 02:06:54;;;;;;;14.60;8.80;;;;;;;;;;5073407;28;20220;-65
2021/04/13 02:09:28;;;;;;;11.25;8.52;;;;;;;;;;5073749;28;20183;-65
2021/04/13 02:11:57;;;;;;;11.85;8.45;;;;;;;;;;5073496;28;20198;-65
2021/04/13 02:14:25;;;;;;;12.18;8.90;;;;;;;;;;5073316;28;20285;-65
2021/04/13 02:16:53;;;;;;;15.05;9.20;;;;;;;;;;5073396;28;20236;-65
2021/04/13 02:19:20;;;;;;;9.15;8.10;;;;;;;;;;5072871;28;20300;-65
2021/04/13 02:21:47;;;;;;;7.28;6.57;;;;;;;;;;5073148;28;20281;-65
2021/04/13 02:24:16;;;;;;;11.85;9.40;;;;;;;;;;5073147;28;20209;-65
2021/04/13 02:26:44;;;;;;;16.63;9.90;;;;;;;;;;5073206;28;20286;-65
2021/04/13 02:29:12;;;;;;;24.42;8.73;;;;;;;;;;5073439;28;20284;-65
2021/04/13 02:31:47;;;;;;;12.93;9.38;;;;;;;;;;5073299;28;20205;-65
2021/04/13 02:34:16;;;;;;;10.50;9.13;;;;;;;;;;5073488;28;20185;-65
2021/04/13 02:36:46;;;;;;;8.98;7.15;;;;;;;;;;5073078;28;20201;-65
2021/04/13 02:39:14;;;;;;;12.25;8.63;;;;;;;;;;5072676;28;20214;-65
2021/04/13 02:41:45;;;;;;;15.13;10.10;;;;;;;;;;5073609;28;20194;-65
2021/04/13 02:44:15;;;;;;;10.52;9.27;;;;;;;;;;5073491;28;20221;-65
2021/04/13 02:46:42;;;;;;;17.33;9.63;;;;;;;;;;5072704;28;20201;-65
2021/04/13 02:49:10;;;;;;;13.52;9.25;;;;;;;;;;5073228;28;20285;-65
2021/04/13 02:51:38;;;;;;;9.73;8.73;;;;;;;;;;5072991;28;20193;-65
2021/04/13 02:54:09;;;;;;;12.60;9.55;;;;;;;;;;5072645;28;20297;-65
2021/04/13 02:56:37;;;;;;;13.52;9.63;;;;;;;;;;5073388;28;20183;-66
2021/04/13 02:59:16;;;;;;;11.77;8.60;;;;;;;;;;5075293;28;20677;-65
2021/04/13 03:01:49;;;;;;;13.63;10.25;;;;;;;;;;5076209;28;20274;-65
2021/04/13 03:04:17;;;;;;;11.80;9.90;;;;;;;;;;5076884;28;20544;-65
2021/04/13 03:06:46;;;;;;;10.23;8.95;;;;;;;;;;5076477;28;20282;-65
2021/04/13 03:09:13;;;;;;;14.32;9.35;;;;;;;;;;5076408;28;20292;-65
2021/04/13 03:11:45;;;;;;;11.60;8.48;;;;;;;;;;5076006;28;20236;-65
2021/04/13 03:14:12;;;;;;;16.08;8.35;;;;;;;;;;5076001;28;20192;-66
2021/04/13 03:16:40;;;;;;;10.40;8.35;;;;;;;;;;5076224;28;20205;-65
2021/04/13 03:19:09;;;;;;;12.15;10.00;;;;;;;;;;5076186;28;20221;-65
2021/04/13 03:21:37;;;;;;;12.48;8.38;;;;;;;;;;5076522;28;20277;-65
2021/04/13 03:24:06;;;;;;;13.45;10.05;;;;;;;;;;5076165;28;20545;-65
2021/04/13 03:26:34;;;;;;;12.40;9.18;;;;;;;;;;5076610;28;20301;-65
2021/04/13 03:29:03;;;;;;;18.20;9.43;;;;;;;;;;5076041;28;20209;-65
2021/04/13 03:31:32;;;;;;;13.18;8.93;;;;;;;;;;5076054;28;20351;-66
2021/04/13 03:33:59;;;;;;;14.35;9.20;;;;;;;;;;5075898;28;20198;-66
2021/04/13 03:36:27;;;;;;;12.73;9.90;;;;;;;;;;5075542;28;20206;-65
2021/04/13 03:38:56;;;;;;;11.13;8.55;;;;;;;;;;5075330;28;20688;-65
2021/04/13 03:41:23;;;;;;;11.95;9.35;;;;;;;;;;5075562;28;20317;-66
2021/04/13 03:43:55;;;;;;;12.55;7.88;;;;;;;;;;5075706;28;20216;-66
2021/04/13 03:46:22;;;;;;;11.77;9.55;;;;;;;;;;5075726;28;20655;-66
2021/04/13 03:48:50;;;;;;;11.70;9.13;;;;;;;;;;5075517;28;20321;-66
2021/04/13 03:51:22;;;;;;;11.25;9.13;;;;;;;;;;5076266;28;20194;-66
2021/04/13 03:53:50;;;;;;;14.90;10.15;;;;;;;;;;5075530;28;20277;-66
2021/04/13 03:56:18;;;;;;;11.38;9.13;;;;;;;;;;5075466;28;20226;-66
2021/04/13 03:58:46;;;;;;;12.77;10.00;;;;;;;;;;5075005;28;20214;-66
2021/04/13 04:01:14;;;;;;;14.13;10.30;;;;;;;;;;5075406;28;20301;-66
2021/04/13 04:03:44;;;;;;;13.93;10.10;;;;;;;;;;5075321;28;20202;-66
2021/04/13 04:06:16;;;;;;;13.40;9.18;;;;;;;;;;5075185;28;20631;-66
2021/04/13 04:08:46;;;;;;;13.95;7.90;;;;;;;;;;5074729;28;20186;-66
2021/04/13 04:11:14;;;;;;;17.55;8.80;;;;;;;;;;5075284;28;20228;-65
2021/04/13 04:13:46;;;;;;;15.00;8.10;;;;;;;;;;5075010;28;20281;-66
2021/04/13 04:16:14;;;;;;;10.30;8.50;;;;;;;;;;5075942;28;20214;-67
2021/04/13 04:18:42;;;;;;;16.40;10.15;;;;;;;;;;5075354;28;20301;-66
2021/04/13 04:21:22;;;;;;;9.57;7.38;;;;;;;;;;5078489;28;20629;-67
2021/04/13 04:23:53;;;;;;;16.80;9.98;;;;;;;;;;5077958;28;20229;-67
2021/04/13 04:26:23;;;;;;;12.82;8.40;;;;;;;;;;5076822;28;20241;-66
2021/04/13 04:28:49;;;;;;;10.52;8.55;;;;;;;;;;5074862;28;20198;-66
2021/04/13 04:31:34;;;;;;;15.32;8.93;;;;;;;;;;5072588;28;20229;-65
2021/04/13 04:34:02;;;;;;;10.98;9.07;;;;;;;;;;5063336;28;20286;-66
2021/04/13 04:36:30;;;;;;;11.20;7.30;;;;;;;;;;5056114;28;20241;-66
2021/04/13 04:38:57;;;;;;;10.85;7.75;;;;;;;;;;5056752;28;20716;-66
2021/04/13 04:41:40;;;;;;;9.55;7.05;;;;;;;;;;5055488;28;20711;-66
2021/04/13 04:44:07;;;;;;;11.95;7.65;;;;;;;;;;5054270;28;20191;-66
2021/04/13 04:46:35;;;;;;;11.32;7.47;;;;;;;;;;5053896;28;20245;-66
2021/04/13 04:49:03;;;;;;;11.57;7.53;;;;;;;;;;5054709;28;20230;-64
2021/04/13 04:51:30;;;;;;;12.43;7.78;;;;;;;;;;5054878;28;20285;-66
2021/04/13 04:53:57;;;;;;;12.52;7.57;;;;;;;;;;5054910;28;20284;-66
2021/04/13 04:56:23;;;;;;;13.65;7.18;;;;;;;;;;5054287;28;20646;-65
2021/04/13 04:58:51;;;;;;;11.25;8.38;;;;;;;;;;5053536;28;20305;-65
2021/04/13 05:01:18;;;;;;;7.85;6.65;;;;;;;;;;5054498;28;20253;-65
2021/04/13 05:03:46;;;;;;;12.85;7.25;;;;;;;;;;5054159;28;20227;-65
2021/04/13 05:06:12;;;;;;;12.82;8.35;;;;;;;;;;5054994;28;20194;-67
2021/04/13 05:08:39;;;;;;;9.73;6.93;;;;;;;;;;5055562;28;20293;-65
2021/04/13 05:11:06;;;;;;;12.00;7.10;;;;;;;;;;5062785;28;20249;-65
2021/04/13 05:13:33;;;;;;;12.65;7.78;;;;;;;;;;5056353;28;20203;-65
2021/04/13 05:16:00;;;;;;;13.05;7.97;;;;;;;;;;5074079;28;20220;-65
2021/04/13 05:18:32;;;;;;;16.08;8.75;;;;;;;;;;5073534;28;20666;-65
2021/04/13 05:20:59;;;;;;;12.23;8.00;;;;;;;;;;5073349;28;20218;-65
2021/04/13 05:23:26;;;;;;;10.02;8.00;;;;;;;;;;5073860;28;20289;-65
2021/04/13 05:25:53;;;;;;;9.20;7.40;;;;;;;;;;5073770;28;20240;-65
2021/04/13 05:28:20;;;;;;;14.68;8.52;;;;;;;;;;5074326;28;20236;-65
2021/04/13 05:30:48;;;;;;;13.38;8.93;;;;;;;;;;5073457;28;20194;-66
2021/04/13 05:33:16;;;;;;;14.48;9.18;;;;;;;;;;5073943;28;20206;-66
2021/04/13 05:35:43;;;;;;;14.23;8.95;;;;;;;;;;5073709;28;20280;-65
2021/04/13 05:38:12;;;;;;;11.85;8.60;;;;;;;;;;5073528;28;20280;-65
2021/04/13 05:40:40;;;;;;;12.98;8.05;;;;;;;;;;5073043;28;20238;-65
2021/04/13 05:43:07;;;;;;;9.98;8.20;;;;;;;;;;5073150;28;20281;-65
2021/04/13 05:45:36;;;;;;;10.52;8.68;;;;;;;;;;5073539;28;20233;-64
2021/04/13 05:48:03;;;;;;;11.23;7.45;;;;;;;;;;5073698;28;20226;-63
2021/04/13 05:50:32;;;;;;;14.75;8.20;;;;;;;;;;5073147;28;20659;-62
2021/04/13 05:52:59;;;;;;;12.93;8.02;;;;;;;;;;5073329;28;20613;-62
2021/04/13 05:55:26;;;;;;;14.57;6.28;;;;;;;;;;5073536;28;20239;-63
2021/04/13 05:57:54;;;;;;;13.32;7.35;;;;;;;;;;5073065;28;20197;-62
2021/04/13 06:00:23;;;;;;;13.98;8.27;;;;;;;;;;5073067;28;20317;-63
2021/04/13 06:02:49;;;;;;;16.63;7.70;;;;;;;;;;5073038;28;20289;-63
2021/04/13 06:05:16;;;;;;;12.52;7.72;;;;;;;;;;5073262;28;20275;-62
2021/04/13 06:07:44;;;;;;;10.45;7.60;;;;;;;;;;5073535;28;20593;-62
2021/04/13 06:10:11;;;;;;;15.50;6.80;;;;;;;;;;5073530;28;20226;-63
2021/04/13 06:12:38;;;;;;;10.05;7.85;;;;;;;;;;5072991;28;20201;-63
2021/04/13 06:15:05;;;;;;;10.75;6.85;;;;;;;;;;5073100;28;20195;-63
2021/04/13 06:17:32;;;;;;;16.95;8.30;;;;;;;;;;5073104;28;20232;-62
2021/04/13 06:19:59;;;;;;;13.68;7.40;;;;;;;;;;5073644;28;20325;-63
2021/04/13 06:22:26;;;;;;;11.40;6.50;;;;;;;;;;5073143;28;20190;-63
2021/04/13 06:24:53;;;;;;;8.52;5.25;;;;;;;;;;5073159;28;20281;-63
2021/04/13 06:27:20;;;;;;;11.07;5.82;;;;;;;;;;5072740;28;20281;-63
2021/04/13 06:29:47;;;;;;;12.57;5.57;;;;;;;;;;5072880;28;20567;-63
2021/04/13 06:32:14;;;;;;;11.13;5.53;;;;;;;;;;5073396;28;20660;-63
2021/04/13 06:34:41;;;;;;;16.20;6.15;;;;;;;;;;5077146;28;20229;-63
2021/04/13 06:37:08;;;;;;;8.45;5.60;;;;;;;;;;5076598;28;20277;-63
2021/04/13 06:39:37;;;;;;;14.38;6.10;;;;;;;;;;5077163;28;20256;-63
2021/04/13 06:42:07;;;;;;;10.23;5.00;;;;;;;;;;5076956;28;20238;-63
2021/04/13 06:44:51;;;;;;;9.07;5.03;;;;;;;;;;5076415;28;20237;-63
2021/04/13 06:47:22;;;;;;;9.00;5.30;;;;;;;;;;5076929;28;20329;-63
2021/04/13 06:49:55;;;;;;;6.70;5.57;;;;;;;;;;5076946;28;20201;-63
2021/04/13 06:52:29;;;;;;;8.98;5.10;;;;;;;;;;5077159;28;20218;-63
2021/04/13 06:55:04;;;;;;;6.07;4.55;;;;;;;;;;5076248;28;20231;-62
2021/04/13 06:57:36;;;;;;;8.60;4.70;;;;;;;;;;5076971;28;20273;-63
2021/04/13 07:00:13;;;;;;;8.55;5.20;;;;;;;;;;5076535;28;20250;-63
2021/04/13 07:02:45;;;;;;;9.38;6.03;;;;;;;;;;5076558;28;20624;-63
2021/04/13 07:05:15;;;;;;;10.93;5.28;;;;;;;;;;5076549;28;20194;-63
2021/04/13 07:07:49;;;;;;;8.10;5.35;;;;;;;;;;5076759;28;20194;-63
2021/04/13 07:10:20;;;;;;;7.32;4.10;;;;;;;;;;5076010;28;20182;-63
2021/04/13 07:12:50;;;;;;;12.30;5.15;;;;;;;;;;5076391;28;20246;-63
2021/04/13 07:15:21;;;;;;;14.80;4.85;;;;;;;;;;5076818;28;20545;-63
2021/04/13 07:17:51;;;;;;;7.95;5.05;;;;;;;;;;5076374;28;20178;-63
2021/04/13 07:20:21;;;;;;;6.22;3.53;;;;;;;;;;5076045;28;20207;-64
2021/04/13 07:22:56;;;;;;;6.63;4.13;;;;;;;;;;5075636;28;20249;-64
2021/04/13 07:25:24;;;;;;;25.25;5.57;;;;;;;;;;5076516;28;20224;-63
2021/04/13 07:27:54;;;;;;;7.60;4.43;;;;;;;;;;5076173;28;20191;-63
2021/04/13 07:30:24;;;;;;;12.43;4.28;;;;;;;;;;5075777;28;20202;-64
2021/04/13 07:32:53;;;;;;;10.05;4.22;;;;;;;;;;5076589;28;20538;-64
2021/04/13 07:35:20;;;;;;;8.88;3.88;;;;;;;;;;5076621;28;20203;-64
2021/04/13 07:37:48;;;;;;;11.43;4.35;;;;;;;;;;5075502;28;20194;-63
2021/04/13 07:40:16;;;;;;;7.28;3.97;;;;;;;;;;5075407;28;20653;-64
2021/04/13 07:42:46;;;;;;;15.82;3.83;;;;;;;;;;5075377;28;20238;-63
2021/04/13 07:45:28;;;;;;;7.53;3.95;;;;;;;;;;5074760;28;20197;-64
2021/04/13 07:48:03;;;;;;;9.65;3.95;;;;;;;;;;5075184;28;20229;-63
2021/04/13 07:50:36;;;;;;;9.95;3.95;;;;;;;;;;5075287;28;20190;-64
2021/04/13 07:53:07;;;;;;;7.03;3.60;;;;;;;;;;5075581;28;20223;-64
2021/04/13 07:55:36;;;;;;;9.63;3.28;;;;;;;;;;5075876;28;20182;-64
2021/04/13 07:58:08;;;;;;;7.53;4.45;;;;;;;;;;5075321;28;20548;-63
2021/04/13 08:00:38;;;;;;;16.35;3.85;;;;;;;;;;5075098;28;20218;-64
2021/04/13 08:03:09;;;;;;;8.23;2.95;;;;;;;;;;5075552;28;20238;-63
2021/04/13 08:05:37;;;;;;;12.85;4.15;;;;;;;;;;5075048;28;20178;-63
2021/04/13 08:08:05;;;;;;;6.25;3.50;;;;;;;;;;5075681;28;20195;-64
2021/04/13 08:10:35;;;;;;;6.38;2.90;;;;;;;;;;5075343;28;20234;-63
2021/04/13 08:13:03;;;;;;;5.93;3.63;;;;;;;;;;5075329;28;20290;-63
2021/04/13 08:15:51;;;;;;;4.47;2.20;;;;;;;;;;5075065;28;20199;-64
2021/04/13 08:18:22;;;;;;;5.75;2.85;;;;;;;;;;5074607;28;20196;-63
2021/04/13 08:20:49;;;;;;;6.20;2.95;;;;;;;;;;5075146;28;20190;-63
2021/04/13 08:23:31;;;;;;;12.63;3.28;;;;;;;;;;5074998;28;20553;-63
2021/04/13 08:25:58;;;;;;;7.45;2.70;;;;;;;;;;5075114;28;20637;-64
2021/04/13 08:28:29;;;;;;;4.97;2.60;;;;;;;;;;5074991;28;20199;-63
2021/04/13 08:34:00;;;;;;;7.88;2.97;;;;;;;;;;5074616;28;20561;-63
2021/04/13 08:36:31;;;;;;;5.97;2.95;;;;;;;;;;5075340;28;20558;-63
2021/04/13 08:39:03;;;;;;;3.53;2.55;;;;;;;;;;5074299;28;20213;-64
2021/04/13 08:41:32;;;;;;;6.00;3.03;;;;;;;;;;5074545;28;20646;-64
2021/04/13 08:44:02;;;;;;;11.52;4.10;;;;;;;;;;5074601;28;20234;-63
2021/04/13 08:46:35;;;;;;;13.95;3.17;;;;;;;;;;5073983;28;20239;-64
2021/04/13 08:49:05;;;;;;;4.68;2.50;;;;;;;;;;5074621;28;20187;-63
2021/04/13 08:51:33;;;;;;;12.95;3.80;;;;;;;;;;5073957;28;20294;-64
2021/04/13 08:54:19;;;;;;;8.48;2.95;;;;;;;;;;5074325;28;20207;-64
2021/04/13 08:56:53;;;;;;;3.22;1.70;;;;;;;;;;5073277;28;20201;-63
2021/04/13 08:59:32;;;;;;;14.00;4.05;;;;;;;;;;5073866;28;20677;-64
2021/04/13 09:02:09;;;;;;;8.95;2.92;;;;;;;;;;5074667;28;20190;-63
2021/04/13 09:04:36;;;;;;;6.13;2.15;;;;;;;;;;5074388;28;20218;-64
2021/04/13 09:07:06;;;;;;;8.18;2.60;;;;;;;;;;5073612;28;20209;-63
2021/04/13 09:09:38;;;;;;;5.90;2.10;;;;;;;;;;5073686;28;20234;-65
2021/04/13 09:12:09;;;;;;;5.13;2.38;;;;;;;;;;5074199;28;20199;-64
2021/04/13 09:14:36;;;;;;;8.82;2.10;;;;;;;;;;5073700;28;20634;-64
2021/04/13 09:17:08;;;;;;;5.95;2.80;;;;;;;;;;5073995;28;20615;-63
2021/04/13 09:19:36;;;;;;;9.85;1.92;;;;;;;;;;5073522;28;20706;-63
2021/04/13 09:22:15;;;;;;;4.57;2.40;;;;;;;;;;5073747;28;20286;-63
2021/04/13 09:24:43;;;;;;;2.30;2.00;;;;;;;;;;5074210;28;20544;-63
2021/04/13 09:27:19;;;;;;;5.63;2.00;;;;;;;;;;5073351;28;20193;-63
2021/04/13 09:29:47;;;;;;;5.80;2.17;;;;;;;;;;5074234;28;20223;-63
2021/04/13 09:32:31;;;;;;;7.45;1.90;;;;;;;;;;5076330;28;20664;-65
2021/04/13 09:35:24;;;;;;;8.27;2.35;;;;;;;;;;5077943;28;20230;-64
2021/04/13 09:37:56;;;;;;;16.13;3.08;;;;;;;;;;5075240;28;20180;-64
2021/04/13 09:40:26;;;;;;;2.95;2.03;;;;;;;;;;5074001;28;20245;-63
2021/04/13 09:43:09;;;;;;;12.20;2.13;;;;;;;;;;5074030;28;20529;-63
2021/04/13 09:45:43;;;;;;;3.58;2.30;;;;;;;;;;5073561;28;20222;-63
2021/04/13 09:48:16;;;;;;;3.83;1.90;;;;;;;;;;5075567;28;20259;-64
2021/04/13 09:50:45;;;;;;;2.88;1.80;;;;;;;;;;5075953;28;20187;-64
2021/04/13 09:53:36;;;;;;;2.65;1.80;;;;;;;;;;5074487;28;20230;-64
2021/04/13 09:56:10;;;;;;;4.03;1.70;;;;;;;;;;5074227;28;20309;-63
2021/04/13 09:58:49;;;;;;;6.93;2.17;;;;;;;;;;5073504;28;20214;-63
2021/04/13 10:01:24;;;;;;;2.55;1.75;;;;;;;;;;5073378;28;20225;-64
2021/04/13 10:04:09;;;;;;;3.22;2.03;;;;;;;;;;5073805;28;20274;-63
2021/04/13 10:06:38;;;;;;;7.50;2.95;;;;;;;;;;5053214;28;20234;-63
2021/04/13 10:09:07;;;;;;;6.70;2.30;;;;;;;;;;5077517;28;20206;-63
2021/04/13 10:11:47;;;;;;;5.43;2.20;;;;;;;;;;5077391;28;20618;-64
2021/04/13 10:14:33;;;;;;;2.90;1.73;;;;;;;;;;5077516;28;20541;-63
2021/04/13 10:17:12;;;;;;;3.38;3.08;;;;;;;;;;5077260;28;20220;-64
2021/04/13 10:20:00;;;;;;;4.13;1.70;;;;;;;;;;5076859;28;20213;-63
2021/04/13 10:22:41;;;;;;;4.18;2.75;;;;;;;;;;5073499;28;20226;-63
2021/04/13 10:25:35;;;;;;;2.85;1.92;;;;;;;;;;5076889;28;20191;-65
2021/04/13 10:28:20;;;;;;;4.38;1.77;;;;;;;;;;5076866;28;20184;-64
2021/04/13 10:31:01;;;;;;;5.07;3.33;;;;;;;;;;5076860;28;20272;-63
2021/04/13 10:33:43;;;;;;;2.53;1.75;;;;;;;;;;5075122;28;20295;-65
2021/04/13 10:36:25;;;;;;;3.28;1.80;;;;;;;;;;5077700;28;20294;-63
2021/04/13 10:39:19;;;;;;;3.88;1.83;;;;;;;;;;5077172;28;20266;-64
2021/04/13 10:42:03;;;;;;;1.55;1.38;;;;;;;;;;5052339;28;20284;-64
2021/04/13 10:44:37;;;;;;;4.50;1.55;;;;;;;;;;5077525;28;20277;-64
2021/04/13 10:47:06;;;;;;;4.15;1.90;;;;;;;;;;5076788;28;20272;-65
2021/04/13 10:49:57;;;;;;;3.92;1.60;;;;;;;;;;5076625;28;20200;-63
2021/04/13 10:52:41;;;;;;;7.43;2.17;;;;;;;;;;5074786;28;20191;-64
2021/04/13 10:55:27;;;;;;;11.27;3.47;;;;;;;;;;5076294;28;20223;-64
2021/04/13 10:58:06;;;;;;;5.32;1.60;;;;;;;;;;5076229;28;20243;-63
2021/04/13 11:00:36;;;;;;;4.70;1.90;;;;;;;;;;5076281;28;20208;-63
2021/04/13 11:03:18;;;;;;;2.97;1.60;;;;;;;;;;5076580;28;20226;-63
2021/04/13 11:06:06;;;;;;;4.97;2.13;;;;;;;;;;5074519;28;20236;-64
2021/04/13 11:09:03;;;;;;;5.43;2.83;;;;;;;;;;5058887;28;20292;-64
2021/04/13 11:11:38;;;;;;;4.38;2.10;;;;;;;;;;5034080;28;20299;-63
2021/04/13 11:14:17;;;;;;;2.58;1.63;;;;;;;;;;5069266;28;20559;-63
2021/04/13 11:16:59;;;;;;;1.40;1.30;;;;;;;;;;5076498;28;20184;-64
2021/04/13 11:19:33;;;;;;;2.28;1.58;;;;;;;;;;5066715;28;20296;-64
2021/04/13 11:22:12;;;;;;;4.70;1.65;;;;;;;;;;5075790;28;20183;-64
2021/04/13 11:24:51;;;;;;;4.63;1.58;;;;;;;;;;5076396;28;20646;-64
2021/04/13 11:27:35;;;;;;;2.53;1.60;;;;;;;;;;5075724;28;20275;-64
2021/04/13 11:30:09;;;;;;;4.03;1.42;;;;;;;;;;5076256;28;20192;-63
2021/04/13 11:32:50;;;;;;;2.95;1.63;;;;;;;;;;5076462;28;20235;-64
2021/04/13 11:35:21;;;;;;;4.03;1.40;;;;;;;;;;5076391;28;20592;-64
2021/04/13 11:37:53;;;;;;;1.73;1.50;;;;;;;;;;5076130;28;20224;-64
2021/04/13 11:40:26;;;;;;;1.50;1.40;;;;;;;;;;5075599;28;20356;-65
2021/04/13 11:42:55;;;;;;;1.50;1.40;;;;;;;;;;5075888;28;20242;-64
2021/04/13 11:45:27;;;;;;;2.88;2.03;;;;;;;;;;5075297;28;20225;-63
2021/04/13 11:47:59;;;;;;;1.90;1.70;;;;;;;;;;5075526;28;20266;-63
2021/04/13 11:50:30;;;;;;;2.50;1.80;;;;;;;;;;5075737;28;20189;-64
2021/04/13 11:53:01;;;;;;;4.30;1.50;;;;;;;;;;5075237;28;20369;-64
2021/04/13 11:55:42;;;;;;;2.05;1.88;;;;;;;;;;5075837;28;20276;-63
2021/04/13 11:58:13;;;;;;;1.98;1.55;;;;;;;;;;5075154;28;20271;-64
2021/04/13 12:00:41;;;;;;;3.05;1.70;;;;;;;;;;5075017;28;20258;-63
2021/04/13 12:03:21;;;;;;;2.55;1.35;;;;;;;;;;5074964;28;20202;-64
2021/04/13 12:05:50;;;;;;;4.25;1.50;;;;;;;;;;5075709;28;20275;-64
2021/04/13 12:08:37;;;;;;;2.72;1.60;;;;;;;;;;5075949;28;20232;-63
2021/04/13 12:11:05;;;;;;;4.97;1.60;;;;;;;;;;5071679;28;20562;-63
2021/04/13 12:13:37;;;;;;;4.93;1.90;;;;;;;;;;5074958;28;20204;-63
2021/04/13 12:16:04;;;;;;;4.45;1.50;;;;;;;;;;5075023;28;20196;-63
2021/04/13 12:18:49;;;;;;;6.97;1.65;;;;;;;;;;5075283;28;20289;-64
2021/04/13 12:21:34;;;;;;;5.72;1.75;;;;;;;;;;5075059;28;20197;-64
2021/04/13 12:24:02;;;;;;;3.17;1.42;;;;;;;;;;5074799;28;20232;-63
2021/04/13 12:26:34;;;;;;;2.30;2.10;;;;;;;;;;5074982;28;20239;-64
2021/04/13 12:29:16;;;;;;;2.03;1.83;;;;;;;;;;5074787;28;20199;-63
2021/04/13 12:31:43;;;;;;;1.65;1.55;;;;;;;;;;5074578;28;20647;-64
2021/04/13 12:34:09;;;;;;;3.78;1.80;;;;;;;;;;5074335;28;20284;-64
2021/04/13 12:36:49;;;;;;;2.40;1.73;;;;;;;;;;5075167;28;20221;-63
2021/04/13 12:39:40;;;;;;;3.15;1.67;;;;;;;;;;5074476;28;20291;-63
2021/04/13 12:42:07;;;;;;;2.17;1.73;;;;;;;;;;5064439;28;20233;-63
2021/04/13 12:44:35;;;;;;;2.08;1.40;;;;;;;;;;5074093;28;20268;-67
2021/04/13 12:47:02;;;;;;;5.53;1.83;;;;;;;;;;5074080;28;20554;-68
2021/04/13 12:49:30;;;;;;;2.33;1.38;;;;;;;;;;5074246;28;20208;-66
2021/04/13 12:51:58;;;;;;;2.17;1.65;;;;;;;;;;5074220;28;20596;-66
2021/04/13 12:54:27;;;;;;;4.95;1.67;;;;;;;;;;5074732;28;20197;-65
2021/04/13 12:56:56;;;;;;;2.78;1.30;;;;;;;;;;5074053;28;20196;-65
2021/04/13 12:59:26;;;;;;;1.70;1.60;;;;;;;;;;5073680;28;20221;-66
2021/04/13 13:01:53;;;;;;;3.40;1.85;;;;;;;;;;5073857;28;20230;-65
2021/04/13 13:04:21;;;;;;;7.50;2.80;;;;;;;;;;5064763;28;20616;-63
2021/04/13 13:06:54;;;;;;;2.22;1.48;;;;;;;;;;5071570;28;20229;-67
2021/04/13 13:09:25;;;;;;;2.50;1.40;;;;;;;;;;5073930;28;20560;-67
2021/04/13 13:12:03;;;;;;;2.50;1.58;;;;;;;;;;5074163;28;20455;-68
2021/04/13 13:14:32;;;;;;;4.75;2.15;;;;;;;;;;5073448;28;20277;-66
2021/04/13 13:16:59;;;;;;;2.75;1.60;;;;;;;;;;5073607;28;20596;-66
2021/04/13 13:19:28;;;;;;;3.63;1.30;;;;;;;;;;5073341;28;20308;-67
2021/04/13 13:21:56;;;;;;;1.92;1.30;;;;;;;;;;5073616;28;20287;-66
2021/04/13 13:24:26;;;;;;;1.40;1.30;;;;;;;;;;5073373;28;20197;-65
2021/04/13 13:26:52;;;;;;;2.20;1.50;;;;;;;;;;5073367;28;20200;-66
2021/04/13 13:29:19;;;;;;;3.30;1.77;;;;;;;;;;5073683;28;20626;-66
2021/04/13 13:31:47;;;;;;;3.17;1.60;;;;;;;;;;5074411;28;20228;-66
2021/04/13 13:34:15;;;;;;;3.00;1.60;;;;;;;;;;5058726;28;20191;-67
2021/04/13 13:36:43;;;;;;;1.75;1.20;;;;;;;;;;5053856;28;20193;-66
2021/04/13 13:39:11;;;;;;;1.50;1.40;;;;;;;;;;5053240;28;20309;-66
2021/04/13 13:41:39;;;;;;;1.63;1.20;;;;;;;;;;5053420;28;20226;-67
2021/04/13 13:44:15;;;;;;;2.88;2.40;;;;;;;;;;5053430;28;20667;-66
2021/04/13 13:46:42;;;;;;;1.65;1.25;;;;;;;;;;5053216;28;20298;-66
2021/04/13 13:49:17;;;;;;;1.50;1.40;;;;;;;;;;5053672;28;20218;-68
2021/04/13 13:51:58;;;;;;;2.05;1.70;;;;;;;;;;5053008;28;20326;-67
2021/04/13 13:54:26;;;;;;;2.90;1.40;;;;;;;;;;5053500;28;20191;-66
2021/04/13 13:56:53;;;;;;;2.75;1.52;;;;;;;;;;5052895;28;20204;-66
2021/04/13 13:59:25;;;;;;;3.90;1.70;;;;;;;;;;5052807;28;20710;-66
2021/04/13 14:01:59;;;;;;;4.05;1.80;;;;;;;;;;5053607;28;20193;-67
2021/04/13 14:04:27;;;;;;;2.13;1.60;;;;;;;;;;5053156;28;20285;-66
2021/04/13 14:06:54;;;;;;;5.07;2.03;;;;;;;;;;5053746;28;20252;-65
2021/04/13 14:09:21;;;;;;;4.30;1.40;;;;;;;;;;5053437;28;20252;-67
2021/04/13 14:11:47;;;;;;;2.33;1.65;;;;;;;;;;5053191;28;20213;-66
2021/04/13 14:14:30;;;;;;;8.45;1.67;;;;;;;;;;5053075;28;20292;-65
2021/04/13 14:16:57;;;;;;;4.20;1.30;;;;;;;;;;5053957;28;20233;-66
2021/04/13 14:19:32;;;;;;;3.80;1.50;;;;;;;;;;5052861;28;20487;-65
2021/04/13 14:22:01;;;;;;;3.72;1.70;;;;;;;;;;5053082;28;20428;-65
2021/04/13 14:24:29;;;;;;;1.80;1.70;;;;;;;;;;5053331;28;20238;-66
2021/04/13 14:27:07;;;;;;;3.75;1.80;;;;;;;;;;5052690;28;20234;-65
2021/04/13 14:29:34;;;;;;;3.17;1.90;;;;;;;;;;5052695;28;20259;-65
2021/04/13 14:32:08;;;;;;;4.45;1.73;;;;;;;;;;5052736;28;20208;-66
2021/04/13 14:34:37;;;;;;;3.10;2.17;;;;;;;;;;5052555;28;20279;-65
2021/04/13 14:37:19;;;;;;;1.80;1.65;;;;;;;;;;5053002;28;20281;-66
2021/04/13 14:39:47;;;;;;;2.27;1.60;;;;;;;;;;5053198;28;20238;-66
2021/04/13 14:42:15;;;;;;;4.63;2.08;;;;;;;;;;5053455;28;20442;-65
2021/04/13 14:44:42;;;;;;;2.67;1.70;;;;;;;;;;5053837;28;20231;-66
2021/04/13 14:47:12;;;;;;;2.33;1.50;;;;;;;;;;5054438;28;20313;-67
2021/04/13 14:49:40;;;;;;;2.40;1.50;;;;;;;;;;5053516;28;20723;-66
2021/04/13 14:52:07;;;;;;;1.80;1.70;;;;;;;;;;5052659;28;20793;-65
2021/04/13 14:54:34;;;;;;;2.30;1.90;;;;;;;;;;5055124;28;20473;-65
2021/04/13 14:57:01;;;;;;;1.40;1.30;;;;;;;;;;5056576;28;21014;-66
2021/04/13 14:59:28;;;;;;;3.05;1.40;;;;;;;;;;5056656;28;20496;-66
2021/04/13 15:01:55;;;;;;;3.38;1.85;;;;;;;;;;5056713;28;20225;-65
2021/04/13 15:04:22;;;;;;;6.53;1.50;;;;;;;;;;5057396;28;20678;-64